createdAt,value
2019-04-29T00:01:36.898Z,10.80
2019-04-29T00:04:06.650Z,10.53
2019-04-29T00:06:36.304Z,9.47
2019-04-29T00:09:10.448Z,8.63
2019-04-29T00:11:40.614Z,8.37
2019-04-29T00:14:10.620Z,8.23
2019-04-29T00:16:45.999Z,8.13
2019-04-29T00:19:30.364Z,8.63
2019-04-29T00:22:00.682Z,9.87
2019-04-29T00:24:31.408Z,10.00
2019-04-29T00:27:01.148Z,10.37
2019-04-29T00:29:30.891Z,9.30
2019-04-29T00:32:00.799Z,9.27
2019-04-29T00:34:30.459Z,9.00
2019-04-29T00:37:31.638Z,9.87
2019-04-29T00:40:34.719Z,10.80
2019-04-29T00:43:28.000Z,9.60
2019-04-29T00:45:58.013Z,10.73
2019-04-29T00:48:28.011Z,11.53
2019-04-29T00:50:57.682Z,12.10
2019-04-29T00:53:27.860Z,12.57
2019-04-29T00:55:59.506Z,12.43
2019-04-29T00:58:29.449Z,11.40
2019-04-29T01:00:59.287Z,12.30
2019-04-29T01:03:29.052Z,12.33
2019-04-29T01:05:58.794Z,13.30
2019-04-29T01:08:28.615Z,12.70
2019-04-29T01:10:58.550Z,13.17
2019-04-29T01:13:28.295Z,12.00
2019-04-29T01:15:58.198Z,11.03
2019-04-29T01:18:27.936Z,10.90
2019-04-29T01:20:57.990Z,11.95
2019-04-29T01:23:27.662Z,11.37
2019-04-29T01:26:00.684Z,10.43
2019-04-29T01:28:49.593Z,10.20
2019-04-29T01:31:24.335Z,10.20
2019-04-29T01:33:57.990Z,10.88
2019-04-29T01:36:33.012Z,11.00
2019-04-29T01:39:04.564Z,9.90
2019-04-29T01:41:42.438Z,8.15
2019-04-29T01:44:12.122Z,9.13
2019-04-29T01:46:41.819Z,8.33
2019-04-29T01:49:11.500Z,9.10
2019-04-29T01:51:41.480Z,8.80
2019-04-29T01:54:11.137Z,8.58
2019-04-29T01:56:41.399Z,9.28
2019-04-29T01:59:12.099Z,9.28
2019-04-29T02:01:41.922Z,9.00
2019-04-29T02:04:11.646Z,9.67
2019-04-29T02:06:41.315Z,9.67
2019-04-29T02:09:15.636Z,9.63
2019-04-29T02:11:45.375Z,9.50
2019-04-29T02:14:15.046Z,9.80
2019-04-29T02:16:44.708Z,9.60
2019-04-29T02:19:14.381Z,10.63
2019-04-29T02:22:03.085Z,10.63
2019-04-29T02:24:33.136Z,11.03
2019-04-29T02:27:05.609Z,10.07
2019-04-29T02:29:34.214Z,11.83
2019-04-29T02:32:04.869Z,11.27
2019-04-29T02:34:34.545Z,11.90
2019-04-29T02:37:06.856Z,10.93
2019-04-29T02:39:48.171Z,12.63
2019-04-29T02:42:43.130Z,12.20
2019-04-29T02:45:21.023Z,14.13
2019-04-29T02:47:53.538Z,14.57
2019-04-29T02:50:23.526Z,14.10
2019-04-29T02:52:53.303Z,14.23
2019-04-29T02:55:28.761Z,13.33
2019-04-29T02:58:06.275Z,12.60
2019-04-29T03:01:01.190Z,12.50
2019-04-29T03:03:39.086Z,12.13
2019-04-29T03:06:08.904Z,11.43
2019-04-29T03:08:38.825Z,11.63
2019-04-29T03:11:08.571Z,11.57
2019-04-29T03:13:38.816Z,11.53
2019-04-29T03:16:08.820Z,12.20
2019-04-29T03:18:42.490Z,10.57
2019-04-29T03:21:18.433Z,8.50
2019-04-29T03:23:48.109Z,7.60
2019-04-29T03:26:17.830Z,7.20
2019-04-29T03:28:47.493Z,7.17
2019-04-29T03:31:17.180Z,8.93
2019-04-29T03:33:46.993Z,8.20
2019-04-29T03:36:16.799Z,8.03
2019-04-29T03:38:46.454Z,8.03
2019-04-29T03:41:16.099Z,8.30
2019-04-29T03:43:45.770Z,8.60
2019-04-29T03:46:15.436Z,9.80
2019-04-29T03:48:45.108Z,9.70
2019-04-29T03:51:14.785Z,11.40
2019-04-29T03:53:44.447Z,13.40
2019-04-29T03:56:14.351Z,11.83
2019-04-29T03:58:44.041Z,11.60
2019-04-29T04:01:22.403Z,12.37
2019-04-29T04:03:56.791Z,12.07
2019-04-29T04:06:36.038Z,14.93
2019-04-29T04:09:15.450Z,12.73
2019-04-29T04:11:45.122Z,10.93
2019-04-29T04:14:15.042Z,11.10
2019-04-29T04:17:20.263Z,11.63
2019-04-29T04:19:48.300Z,11.03
2019-04-29T04:22:18.057Z,10.98
2019-04-29T04:24:47.804Z,10.70
2019-04-29T04:27:17.480Z,11.35
2019-04-29T04:29:48.145Z,13.20
2019-04-29T04:32:17.843Z,16.03
2019-04-29T04:34:47.505Z,14.60
2019-04-29T04:37:17.192Z,14.83
2019-04-29T04:39:46.862Z,14.17
2019-04-29T04:42:16.888Z,12.63
2019-04-29T04:44:49.886Z,13.93
2019-04-29T04:47:20.075Z,12.55
2019-04-29T04:49:49.518Z,12.27
2019-04-29T04:52:18.471Z,11.78
2019-04-29T04:54:48.270Z,12.70
2019-04-29T04:57:17.153Z,12.80
2019-04-29T04:59:47.136Z,14.37
2019-04-29T05:02:16.819Z,16.07
2019-04-29T05:04:46.585Z,14.23
2019-04-29T05:07:17.237Z,13.90
2019-04-29T05:09:47.954Z,16.80
2019-04-29T05:12:17.868Z,15.27
2019-04-29T05:14:47.529Z,17.87
2019-04-29T05:17:17.208Z,15.50
2019-04-29T05:19:46.893Z,15.97
2019-04-29T05:22:16.586Z,17.30
2019-04-29T05:24:46.273Z,17.40
2019-04-29T05:27:16.208Z,18.63
2019-04-29T05:29:46.113Z,14.17
2019-04-29T05:32:15.798Z,15.70
2019-04-29T05:34:48.008Z,15.97
2019-04-29T05:37:56.523Z,16.07
2019-04-29T05:40:40.792Z,15.30
2019-04-29T05:43:11.060Z,15.90
2019-04-29T05:45:47.882Z,15.68
2019-04-29T05:48:16.439Z,18.43
2019-04-29T05:50:57.835Z,16.33
2019-04-29T05:53:33.460Z,17.57
2019-04-29T05:56:03.137Z,22.27
2019-04-29T05:58:37.620Z,21.00
2019-04-29T06:01:11.008Z,24.45
2019-04-29T06:03:44.045Z,22.13
2019-04-29T06:06:12.544Z,20.23
2019-04-29T06:08:42.155Z,21.77
2019-04-29T06:11:12.089Z,23.42
2019-04-29T06:13:41.763Z,33.10
2019-04-29T06:16:15.968Z,27.73
2019-04-29T06:18:43.153Z,32.50
2019-04-29T06:21:12.909Z,28.30
2019-04-29T06:23:42.581Z,31.67
2019-04-29T06:26:12.757Z,26.57
2019-04-29T06:28:43.425Z,25.83
2019-04-29T06:31:15.426Z,27.20
2019-04-29T06:33:45.138Z,29.50
2019-04-29T06:36:14.946Z,27.70
2019-04-29T06:38:44.908Z,29.57
2019-04-29T06:41:14.603Z,29.50
2019-04-29T06:43:44.305Z,27.57
2019-04-29T06:46:14.354Z,26.33
2019-04-29T06:48:44.126Z,24.73
2019-04-29T06:51:14.162Z,22.82
2019-04-29T06:53:43.858Z,21.10
2019-04-29T06:56:13.535Z,20.43
2019-04-29T06:58:43.378Z,19.77
2019-04-29T07:01:13.072Z,20.87
2019-04-29T07:03:42.967Z,18.17
2019-04-29T07:06:13.628Z,19.90
2019-04-29T07:08:43.347Z,20.43
2019-04-29T07:11:13.110Z,19.00
2019-04-29T07:13:42.843Z,19.97
2019-04-29T07:16:12.987Z,18.17
2019-04-29T07:18:48.338Z,16.03
2019-04-29T07:21:14.477Z,15.53
2019-04-29T07:23:44.147Z,17.33
2019-04-29T07:26:13.852Z,14.38
2019-04-29T07:28:43.548Z,15.10
2019-04-29T07:31:13.237Z,14.27
2019-04-29T07:33:42.969Z,13.87
2019-04-29T07:36:12.669Z,14.83
2019-04-29T07:38:46.487Z,14.03
2019-04-29T07:41:18.460Z,13.95
2019-04-29T07:43:45.406Z,15.07
2019-04-29T07:46:36.463Z,14.50
2019-04-29T07:49:05.885Z,14.77
2019-04-29T07:51:39.438Z,13.60
2019-04-29T07:54:11.065Z,13.97
2019-04-29T07:56:42.350Z,13.87
2019-04-29T07:59:11.343Z,12.17
2019-04-29T08:01:41.253Z,13.27
2019-04-29T08:04:09.712Z,13.85
2019-04-29T08:06:42.654Z,12.53
2019-04-29T08:09:09.732Z,12.85
2019-04-29T08:11:38.210Z,12.93
2019-04-29T08:14:06.600Z,11.97
2019-04-29T08:16:34.902Z,12.33
2019-04-29T08:19:05.044Z,12.90
2019-04-29T08:21:33.494Z,12.63
2019-04-29T08:24:01.795Z,13.13
2019-04-29T08:26:33.588Z,10.13
2019-04-29T08:29:00.826Z,9.00
2019-04-29T08:31:29.890Z,9.53
2019-04-29T08:33:58.213Z,9.50
2019-04-29T08:36:26.926Z,10.10
2019-04-29T08:39:08.015Z,10.97
2019-04-29T08:41:28.797Z,9.30
2019-04-29T08:44:16.198Z,10.50
2019-04-29T08:46:51.818Z,9.57
2019-04-29T08:49:17.218Z,9.70
2019-04-29T08:51:45.658Z,10.40
2019-04-29T08:54:16.018Z,9.85
2019-04-29T08:57:01.656Z,10.90
2019-04-29T08:59:20.672Z,10.55
2019-04-29T09:01:48.858Z,13.53
2019-04-29T09:04:18.551Z,11.12
2019-04-29T09:06:48.229Z,10.37
2019-04-29T09:09:28.452Z,10.58
2019-04-29T09:11:49.618Z,10.97
2019-04-29T09:14:19.465Z,12.17
2019-04-29T09:16:49.161Z,10.77
2019-04-29T09:19:18.868Z,12.23
2019-04-29T09:21:51.512Z,11.23
2019-04-29T09:24:22.571Z,12.90
2019-04-29T09:26:58.233Z,10.63
2019-04-29T09:29:32.257Z,8.73
2019-04-29T09:32:02.213Z,8.30
2019-04-29T09:34:31.980Z,8.30
2019-04-29T09:37:01.997Z,7.90
2019-04-29T09:39:43.157Z,7.70
2019-04-29T09:42:30.743Z,6.20
2019-04-29T09:45:05.465Z,6.00
2019-04-29T09:47:35.426Z,5.87
2019-04-29T09:50:06.739Z,5.20
2019-04-29T09:52:36.857Z,6.07
2019-04-29T09:55:07.216Z,5.70
2019-04-29T09:57:36.906Z,5.33
2019-04-29T10:00:14.055Z,4.87
2019-04-29T10:02:52.065Z,5.27
2019-04-29T10:05:40.300Z,5.47
2019-04-29T10:08:09.567Z,5.07
2019-04-29T10:10:38.019Z,5.60
2019-04-29T10:13:06.324Z,7.23
2019-04-29T10:15:55.934Z,7.47
2019-04-29T10:18:50.740Z,5.53
2019-04-29T10:21:21.405Z,5.93
2019-04-29T10:23:49.221Z,5.10
2019-04-29T10:26:17.806Z,5.22
2019-04-29T10:28:59.733Z,5.40
2019-04-29T10:31:28.183Z,5.13
2019-04-29T10:33:56.641Z,5.50
2019-04-29T10:36:26.338Z,5.37
2019-04-29T10:38:56.551Z,4.50
2019-04-29T10:41:30.495Z,5.00
2019-04-29T10:44:25.878Z,5.10
2019-04-29T10:47:07.386Z,4.53
2019-04-29T10:49:55.327Z,4.67
2019-04-29T10:52:23.730Z,5.40
2019-04-29T10:54:55.352Z,4.80
2019-04-29T10:57:25.555Z,4.43
2019-04-29T11:00:01.376Z,4.20
2019-04-29T11:02:40.196Z,3.87
2019-04-29T11:05:34.889Z,3.50
2019-04-29T11:08:15.321Z,4.42
2019-04-29T11:10:45.359Z,3.87
2019-04-29T11:13:15.372Z,5.30
2019-04-29T11:15:49.436Z,4.87
2019-04-29T11:18:22.575Z,4.72
2019-04-29T11:20:48.912Z,4.87
2019-04-29T11:23:27.278Z,4.80
2019-04-29T11:26:15.281Z,5.03
2019-04-29T11:28:46.940Z,4.67
2019-04-29T11:31:19.314Z,5.28
2019-04-29T11:33:59.661Z,4.93
2019-04-29T11:36:29.429Z,4.33
2019-04-29T11:38:59.114Z,4.40
2019-04-29T11:41:31.645Z,4.70
2019-04-29T11:44:01.344Z,4.90
2019-04-29T11:46:31.169Z,4.57
2019-04-29T11:49:02.577Z,4.27
2019-04-29T11:52:07.942Z,5.57
2019-04-29T11:54:18.073Z,4.77
2019-04-29T11:56:46.699Z,4.60
2019-04-29T11:59:34.294Z,3.73
2019-04-29T12:02:37.690Z,4.97
2019-04-29T12:05:04.118Z,4.13
2019-04-29T12:07:34.111Z,4.80
2019-04-29T12:10:06.472Z,7.33
2019-04-29T12:12:35.932Z,5.53
2019-04-29T12:15:34.722Z,5.80
2019-04-29T12:18:12.236Z,4.37
2019-04-29T12:21:13.279Z,4.10
2019-04-29T12:23:43.343Z,4.27
2019-04-29T12:26:13.377Z,4.10
2019-04-29T12:28:44.499Z,5.00
2019-04-29T12:31:29.998Z,4.27
2019-04-29T12:34:09.073Z,5.00
2019-04-29T12:36:55.023Z,4.50
2019-04-29T12:39:42.865Z,3.95
2019-04-29T12:42:28.471Z,4.20
2019-04-29T12:45:01.353Z,4.43
2019-04-29T12:47:33.104Z,4.10
2019-04-29T12:50:02.802Z,4.90
2019-04-29T12:52:32.518Z,5.47
2019-04-29T12:55:19.813Z,5.33
2019-04-29T12:57:35.988Z,4.90
2019-04-29T13:00:09.166Z,4.73
2019-04-29T13:03:01.437Z,4.93
2019-04-29T13:05:57.910Z,5.40
2019-04-29T13:08:28.518Z,5.00
2019-04-29T13:11:00.805Z,5.87
2019-04-29T13:13:30.629Z,6.17
2019-04-29T13:16:20.831Z,7.03
2019-04-29T13:19:10.646Z,6.17
2019-04-29T13:21:30.787Z,6.25
2019-04-29T13:24:13.577Z,5.90
2019-04-29T13:26:33.357Z,6.90
2019-04-29T13:29:03.576Z,6.27
2019-04-29T13:31:38.374Z,6.27
2019-04-29T13:34:22.963Z,7.00
2019-04-29T13:36:39.045Z,7.47
2019-04-29T13:39:09.696Z,6.40
2019-04-29T13:41:56.167Z,6.87
2019-04-29T13:44:11.597Z,6.43
2019-04-29T13:47:03.247Z,6.57
2019-04-29T13:49:50.596Z,6.67
2019-04-29T13:52:20.749Z,7.27
2019-04-29T17:10:10.605Z,15.87
2019-04-29T17:12:47.963Z,16.93
2019-04-29T17:15:26.083Z,14.37
2019-04-29T17:17:55.582Z,13.77
2019-04-29T17:20:25.273Z,11.77
2019-04-29T17:22:54.955Z,11.23
2019-04-29T17:25:25.108Z,10.63
2019-04-29T17:28:12.317Z,11.07
2019-04-29T17:31:12.452Z,11.07
2019-04-29T17:33:50.191Z,11.43
2019-04-29T17:36:23.803Z,9.80
2019-04-29T17:38:51.679Z,10.83
2019-04-29T17:41:21.380Z,11.77
2019-04-29T17:44:02.334Z,12.60
2019-04-29T17:46:50.693Z,11.53
2019-04-29T17:49:30.759Z,10.83
2019-04-29T17:52:02.793Z,12.97
2019-04-29T17:54:37.026Z,13.50
2019-04-29T17:57:31.467Z,12.47
2019-04-29T18:00:15.873Z,14.53
2019-04-29T18:03:05.284Z,13.63
2019-04-29T18:05:55.025Z,14.73
2019-04-29T18:08:27.339Z,12.23
2019-04-29T18:10:59.844Z,13.97
2019-04-29T18:13:30.546Z,15.13
2019-04-29T18:16:03.968Z,13.30
2019-04-29T18:18:46.568Z,13.63
2019-04-29T18:21:43.389Z,14.80
2019-04-29T18:24:25.349Z,15.13
2019-04-29T18:27:00.294Z,14.27
2019-04-29T18:29:28.600Z,15.30
2019-04-29T18:32:00.487Z,15.50
2019-04-29T18:34:29.273Z,15.27
2019-04-29T18:37:00.366Z,15.97
2019-04-29T18:39:31.650Z,15.70
2019-04-29T18:42:03.208Z,15.80
2019-04-29T18:44:33.024Z,19.37
2019-04-29T18:47:02.703Z,15.63
2019-04-29T18:49:32.386Z,19.10
2019-04-29T18:52:03.828Z,16.93
2019-04-29T18:54:33.489Z,17.57
2019-04-29T18:57:03.183Z,16.37
2019-04-29T18:59:36.688Z,18.32
2019-04-29T19:02:09.355Z,18.07
2019-04-29T19:04:48.496Z,18.27
2019-04-29T19:07:17.522Z,17.45
2019-04-29T19:09:47.292Z,17.83
2019-04-29T19:12:17.054Z,20.00
2019-04-29T19:14:47.868Z,18.33
2019-04-29T19:17:17.632Z,18.63
2019-04-29T19:19:47.313Z,18.63
2019-04-29T19:22:16.990Z,20.47
2019-04-29T19:24:48.196Z,20.47
2019-04-29T19:27:17.983Z,24.80
2019-04-29T19:29:47.733Z,24.13
2019-04-29T19:32:18.775Z,25.77
2019-04-29T19:34:50.199Z,20.00
2019-04-29T19:37:18.842Z,25.03
2019-04-29T19:39:47.143Z,23.17
2019-04-29T19:42:28.316Z,25.82
2019-04-29T19:44:45.930Z,25.37
2019-04-29T19:47:16.687Z,23.40
2019-04-29T19:49:46.544Z,27.07
2019-04-29T19:52:27.956Z,26.40
2019-04-29T19:54:48.690Z,25.10
2019-04-29T19:57:18.452Z,26.37
2019-04-29T19:59:51.995Z,24.80
2019-04-29T20:02:20.118Z,23.35
2019-04-29T20:04:58.936Z,23.15
2019-04-29T20:07:27.567Z,23.63
2019-04-29T20:10:04.046Z,24.43
2019-04-29T20:12:29.593Z,23.43
2019-04-29T20:15:01.980Z,25.77
2019-04-29T20:17:53.142Z,22.70
2019-04-29T20:20:35.042Z,22.43
2019-04-29T20:23:03.112Z,24.13
2019-04-29T20:25:38.066Z,25.13
2019-04-29T20:28:08.636Z,25.97
2019-04-29T20:30:37.042Z,24.50
2019-04-29T20:33:09.596Z,27.40
2019-04-29T20:35:40.454Z,25.67
2019-04-29T20:38:09.687Z,28.55
2019-04-29T20:40:43.062Z,28.13
2019-04-29T20:43:11.449Z,25.60
2019-04-29T20:45:41.219Z,28.75
2019-04-29T20:48:15.327Z,27.60
2019-04-29T20:50:46.106Z,29.70
2019-04-29T20:53:19.202Z,25.93
2019-04-29T20:55:49.159Z,26.63
2019-04-29T20:58:23.398Z,27.77
2019-04-29T21:00:50.372Z,25.27
2019-04-29T21:03:27.693Z,24.40
2019-04-29T21:05:54.914Z,26.20
2019-04-29T21:08:23.322Z,24.53
2019-04-29T21:10:55.445Z,24.27
2019-04-29T21:13:33.581Z,27.70
2019-04-29T21:16:11.588Z,25.20
2019-04-29T21:18:45.480Z,24.80
2019-04-29T21:21:12.837Z,26.17
2019-04-29T21:23:42.636Z,25.27
2019-04-29T21:26:12.394Z,24.33
2019-04-29T21:28:44.637Z,24.93
2019-04-29T21:31:18.525Z,23.85
2019-04-29T21:33:45.628Z,23.63
2019-04-29T21:36:26.484Z,25.30
2019-04-29T21:39:02.337Z,25.83
2019-04-29T21:41:42.326Z,25.40
2019-04-29T21:44:12.112Z,23.90
2019-04-29T21:46:40.358Z,24.40
2019-04-29T21:49:11.687Z,25.27
2019-04-29T21:51:41.773Z,23.73
2019-04-29T21:54:09.717Z,24.63
2019-04-29T21:56:39.740Z,25.47
2019-04-29T21:59:12.271Z,24.75
2019-04-29T22:01:41.561Z,24.70
2019-04-29T22:04:11.270Z,25.43
2019-04-29T22:06:41.039Z,25.77
2019-04-29T22:09:12.432Z,24.40
2019-04-29T22:11:44.590Z,24.27
2019-04-29T22:14:15.547Z,27.47
2019-04-29T22:16:47.571Z,24.67
2019-04-29T22:19:17.586Z,25.13
2019-04-29T22:21:47.550Z,25.57
2019-04-29T22:24:17.389Z,26.70
2019-04-29T22:26:47.159Z,21.03
2019-04-29T22:29:16.859Z,27.00
2019-04-29T22:31:46.691Z,23.50
2019-04-29T22:34:19.028Z,24.67
2019-04-29T22:36:52.661Z,26.33
2019-04-29T22:39:21.714Z,27.10
2019-04-29T22:42:01.587Z,27.23
2019-04-29T22:44:31.606Z,26.50
2019-04-29T22:47:01.301Z,27.67
2019-04-29T22:49:32.062Z,25.47
2019-04-29T22:52:01.760Z,25.10
2019-04-29T22:54:31.444Z,26.70
2019-04-29T22:57:01.239Z,27.27
2019-04-29T22:59:30.911Z,28.07
2019-04-29T23:02:01.016Z,26.70
2019-04-29T23:04:30.707Z,27.53
2019-04-29T23:07:00.471Z,31.53
2019-04-29T23:09:30.674Z,26.87
2019-04-29T23:12:00.362Z,30.23
2019-04-29T23:14:30.133Z,30.73
2019-04-29T23:16:59.830Z,29.60
2019-04-29T23:19:29.578Z,31.77
2019-04-29T23:22:07.512Z,29.77
2019-04-29T23:24:55.838Z,31.03
2019-04-29T23:27:25.933Z,32.00
2019-04-29T23:29:55.877Z,33.13
2019-04-29T23:32:25.565Z,32.10
2019-04-29T23:34:57.235Z,31.95
2019-04-29T23:37:29.458Z,32.63
2019-04-29T23:39:59.174Z,31.90
2019-04-29T23:42:28.852Z,33.33
2019-04-29T23:44:58.551Z,31.13
2019-04-29T23:47:28.318Z,32.00
2019-04-29T23:49:58.011Z,34.17
2019-04-29T23:52:27.695Z,33.77
2019-04-29T23:54:56.301Z,37.77
2019-04-29T23:57:46.133Z,34.13
